sensor_id;sensor_type;location;lat;lon;timestamp;P1;durP1;ratioP1;P2;durP2;ratioP2
76856;SDS011;66179;44.686;37.628;2023-04-24T00:01:54;7.97;;;2.92;;
76856;SDS011;66179;44.686;37.628;2023-04-24T00:04:21;6.30;;;2.93;;
76856;SDS011;66179;44.686;37.628;2023-04-24T00:06:47;9.13;;;3.22;;
76856;SDS011;66179;44.686;37.628;2023-04-24T00:09:19;6.72;;;2.80;;
76856;SDS011;66179;44.686;37.628;2023-04-24T00:11:46;10.57;;;3.03;;
76856;SDS011;66179;44.686;37.628;2023-04-24T00:14:12;9.00;;;3.10;;
76856;SDS011;66179;44.686;37.628;2023-04-24T00:16:39;8.60;;;2.90;;
76856;SDS011;66179;44.686;37.628;2023-04-24T00:19:06;7.40;;;2.78;;
76856;SDS011;66179;44.686;37.628;2023-04-24T00:24:16;7.50;;;2.40;;
76856;SDS011;66179;44.686;37.628;2023-04-24T00:26:43;8.50;;;2.50;;
76856;SDS011;66179;44.686;37.628;2023-04-24T00:29:10;6.63;;;2.50;;
76856;SDS011;66179;44.686;37.628;2023-04-24T00:31:36;7.30;;;2.30;;
76856;SDS011;66179;44.686;37.628;2023-04-24T00:34:03;7.57;;;2.35;;
76856;SDS011;66179;44.686;37.628;2023-04-24T00:36:31;8.75;;;2.40;;
76856;SDS011;66179;44.686;37.628;2023-04-24T00:38:58;8.02;;;2.38;;
76856;SDS011;66179;44.686;37.628;2023-04-24T00:41:25;6.40;;;2.33;;
76856;SDS011;66179;44.686;37.628;2023-04-24T00:43:52;9.35;;;2.30;;
76856;SDS011;66179;44.686;37.628;2023-04-24T00:46:19;7.35;;;2.25;;
76856;SDS011;66179;44.686;37.628;2023-04-24T00:48:47;6.18;;;2.40;;
76856;SDS011;66179;44.686;37.628;2023-04-24T00:51:14;8.15;;;2.10;;
76856;SDS011;66179;44.686;37.628;2023-04-24T00:53:41;8.17;;;2.20;;
76856;SDS011;66179;44.686;37.628;2023-04-24T00:56:07;5.45;;;2.20;;
76856;SDS011;66179;44.686;37.628;2023-04-24T00:58:34;7.18;;;2.17;;
76856;SDS011;66179;44.686;37.628;2023-04-24T01:01:01;6.20;;;2.28;;
76856;SDS011;66179;44.686;37.628;2023-04-24T01:03:29;7.78;;;2.42;;
76856;SDS011;66179;44.686;37.628;2023-04-24T01:05:57;8.40;;;2.40;;
76856;SDS011;66179;44.686;37.628;2023-04-24T01:08:25;7.65;;;2.40;;
76856;SDS011;66179;44.686;37.628;2023-04-24T01:10:54;9.18;;;2.58;;
76856;SDS011;66179;44.686;37.628;2023-04-24T01:13:23;5.63;;;2.30;;
76856;SDS011;66179;44.686;37.628;2023-04-24T01:15:50;9.25;;;2.22;;
76856;SDS011;66179;44.686;37.628;2023-04-24T01:18:17;6.60;;;2.13;;
76856;SDS011;66179;44.686;37.628;2023-04-24T01:20:44;8.57;;;2.30;;
76856;SDS011;66179;44.686;37.628;2023-04-24T01:23:13;6.30;;;2.30;;
76856;SDS011;66179;44.686;37.628;2023-04-24T01:25:40;7.35;;;2.20;;
76856;SDS011;66179;44.686;37.628;2023-04-24T01:28:07;6.63;;;2.20;;
76856;SDS011;66179;44.686;37.628;2023-04-24T01:30:34;6.77;;;2.30;;
76856;SDS011;66179;44.686;37.628;2023-04-24T01:33:01;5.95;;;2.58;;
76856;SDS011;66179;44.686;37.628;2023-04-24T01:35:29;6.45;;;2.40;;
76856;SDS011;66179;44.686;37.628;2023-04-24T01:37:56;7.63;;;2.40;;
76856;SDS011;66179;44.686;37.628;2023-04-24T01:40:22;8.75;;;2.42;;
76856;SDS011;66179;44.686;37.628;2023-04-24T01:42:49;9.50;;;2.10;;
76856;SDS011;66179;44.686;37.628;2023-04-24T01:45:17;5.60;;;2.00;;
76856;SDS011;66179;44.686;37.628;2023-04-24T01:47:44;5.75;;;2.20;;
76856;SDS011;66179;44.686;37.628;2023-04-24T01:50:12;7.53;;;2.28;;
76856;SDS011;66179;44.686;37.628;2023-04-24T01:52:39;6.70;;;2.28;;
76856;SDS011;66179;44.686;37.628;2023-04-24T01:55:06;9.37;;;2.20;;
76856;SDS011;66179;44.686;37.628;2023-04-24T01:57:34;7.07;;;2.10;;
76856;SDS011;66179;44.686;37.628;2023-04-24T02:00:02;9.23;;;2.50;;
76856;SDS011;66179;44.686;37.628;2023-04-24T02:02:40;6.25;;;2.22;;
76856;SDS011;66179;44.686;37.628;2023-04-24T02:05:07;6.53;;;2.13;;
76856;SDS011;66179;44.686;37.628;2023-04-24T02:07:37;6.07;;;2.37;;
76856;SDS011;66179;44.686;37.628;2023-04-24T02:10:04;6.55;;;2.40;;
76856;SDS011;66179;44.686;37.628;2023-04-24T02:12:32;6.88;;;2.10;;
76856;SDS011;66179;44.686;37.628;2023-04-24T02:15:00;9.20;;;2.50;;
76856;SDS011;66179;44.686;37.628;2023-04-24T02:17:27;7.00;;;2.50;;
76856;SDS011;66179;44.686;37.628;2023-04-24T02:19:54;5.93;;;2.50;;
76856;SDS011;66179;44.686;37.628;2023-04-24T02:22:21;6.32;;;2.28;;
76856;SDS011;66179;44.686;37.628;2023-04-24T02:24:48;7.45;;;2.35;;
76856;SDS011;66179;44.686;37.628;2023-04-24T02:27:15;6.78;;;2.47;;
76856;SDS011;66179;44.686;37.628;2023-04-24T02:29:42;6.72;;;2.70;;
76856;SDS011;66179;44.686;37.628;2023-04-24T02:32:09;6.47;;;2.40;;
76856;SDS011;66179;44.686;37.628;2023-04-24T02:34:38;8.10;;;2.13;;
76856;SDS011;66179;44.686;37.628;2023-04-24T02:37:05;7.45;;;2.40;;
76856;SDS011;66179;44.686;37.628;2023-04-24T02:39:32;8.57;;;2.50;;
76856;SDS011;66179;44.686;37.628;2023-04-24T02:41:59;7.07;;;2.38;;
76856;SDS011;66179;44.686;37.628;2023-04-24T02:44:26;8.97;;;2.50;;
76856;SDS011;66179;44.686;37.628;2023-04-24T02:46:52;5.97;;;2.60;;
76856;SDS011;66179;44.686;37.628;2023-04-24T02:49:20;7.70;;;2.45;;
76856;SDS011;66179;44.686;37.628;2023-04-24T02:51:46;6.47;;;2.60;;
76856;SDS011;66179;44.686;37.628;2023-04-24T02:54:13;7.20;;;2.53;;
76856;SDS011;66179;44.686;37.628;2023-04-24T02:56:40;8.43;;;2.37;;
76856;SDS011;66179;44.686;37.628;2023-04-24T02:59:08;7.78;;;2.50;;
76856;SDS011;66179;44.686;37.628;2023-04-24T03:01:36;7.53;;;2.72;;
76856;SDS011;66179;44.686;37.628;2023-04-24T03:04:03;6.78;;;2.60;;
76856;SDS011;66179;44.686;37.628;2023-04-24T03:06:30;7.20;;;2.67;;
76856;SDS011;66179;44.686;37.628;2023-04-24T03:08:59;7.93;;;2.20;;
76856;SDS011;66179;44.686;37.628;2023-04-24T03:11:26;10.00;;;3.30;;
76856;SDS011;66179;44.686;37.628;2023-04-24T03:13:53;6.72;;;2.50;;
76856;SDS011;66179;44.686;37.628;2023-04-24T03:16:20;6.47;;;2.60;;
76856;SDS011;66179;44.686;37.628;2023-04-24T03:18:47;7.63;;;2.53;;
76856;SDS011;66179;44.686;37.628;2023-04-24T03:21:14;6.93;;;2.30;;
76856;SDS011;66179;44.686;37.628;2023-04-24T03:23:44;7.28;;;2.75;;
76856;SDS011;66179;44.686;37.628;2023-04-24T03:26:11;7.10;;;3.05;;
76856;SDS011;66179;44.686;37.628;2023-04-24T03:28:46;9.63;;;3.20;;
76856;SDS011;66179;44.686;37.628;2023-04-24T03:31:13;8.30;;;3.00;;
76856;SDS011;66179;44.686;37.628;2023-04-24T03:33:41;7.83;;;2.77;;
76856;SDS011;66179;44.686;37.628;2023-04-24T03:36:09;8.90;;;2.78;;
76856;SDS011;66179;44.686;37.628;2023-04-24T03:38:40;9.50;;;2.92;;
76856;SDS011;66179;44.686;37.628;2023-04-24T03:41:26;7.15;;;2.70;;
76856;SDS011;66179;44.686;37.628;2023-04-24T03:44:03;7.03;;;3.08;;
76856;SDS011;66179;44.686;37.628;2023-04-24T03:46:30;8.17;;;2.80;;
76856;SDS011;66179;44.686;37.628;2023-04-24T03:48:59;7.80;;;2.92;;
76856;SDS011;66179;44.686;37.628;2023-04-24T03:51:30;7.53;;;2.80;;
76856;SDS011;66179;44.686;37.628;2023-04-24T03:54:07;7.18;;;2.58;;
76856;SDS011;66179;44.686;37.628;2023-04-24T03:56:38;7.85;;;2.75;;
76856;SDS011;66179;44.686;37.628;2023-04-24T03:59:05;7.63;;;2.80;;
76856;SDS011;66179;44.686;37.628;2023-04-24T04:01:33;7.25;;;2.75;;
76856;SDS011;66179;44.686;37.628;2023-04-24T04:04:11;9.07;;;2.70;;
76856;SDS011;66179;44.686;37.628;2023-04-24T04:06:39;7.47;;;2.78;;
76856;SDS011;66179;44.686;37.628;2023-04-24T04:09:06;8.63;;;3.10;;
76856;SDS011;66179;44.686;37.628;2023-04-24T04:11:35;9.83;;;2.80;;
76856;SDS011;66179;44.686;37.628;2023-04-24T04:14:02;6.90;;;2.58;;
76856;SDS011;66179;44.686;37.628;2023-04-24T04:16:30;7.28;;;2.83;;
76856;SDS011;66179;44.686;37.628;2023-04-24T04:19:02;9.70;;;3.50;;
76856;SDS011;66179;44.686;37.628;2023-04-24T04:21:29;9.95;;;3.03;;
76856;SDS011;66179;44.686;37.628;2023-04-24T04:24:08;9.30;;;3.30;;
76856;SDS011;66179;44.686;37.628;2023-04-24T04:26:42;8.55;;;3.33;;
76856;SDS011;66179;44.686;37.628;2023-04-24T04:29:13;8.63;;;3.20;;
76856;SDS011;66179;44.686;37.628;2023-04-24T04:31:43;10.00;;;3.40;;
76856;SDS011;66179;44.686;37.628;2023-04-24T04:34:12;8.43;;;3.58;;
76856;SDS011;66179;44.686;37.628;2023-04-24T04:36:41;7.13;;;3.03;;
76856;SDS011;66179;44.686;37.628;2023-04-24T04:39:47;8.05;;;2.92;;
76856;SDS011;66179;44.686;37.628;2023-04-24T04:42:23;8.23;;;2.88;;
76856;SDS011;66179;44.686;37.628;2023-04-24T04:44:51;10.82;;;2.95;;
76856;SDS011;66179;44.686;37.628;2023-04-24T04:47:23;8.48;;;2.42;;
76856;SDS011;66179;44.686;37.628;2023-04-24T04:49:51;7.10;;;2.50;;
76856;SDS011;66179;44.686;37.628;2023-04-24T04:52:24;7.72;;;2.55;;
76856;SDS011;66179;44.686;37.628;2023-04-24T04:54:56;6.80;;;2.65;;
76856;SDS011;66179;44.686;37.628;2023-04-24T04:57:30;10.82;;;2.60;;
76856;SDS011;66179;44.686;37.628;2023-04-24T04:59:57;7.40;;;2.65;;
76856;SDS011;66179;44.686;37.628;2023-04-24T05:02:37;7.70;;;2.60;;
76856;SDS011;66179;44.686;37.628;2023-04-24T05:05:04;6.72;;;2.60;;
76856;SDS011;66179;44.686;37.628;2023-04-24T05:07:32;7.07;;;2.50;;
76856;SDS011;66179;44.686;37.628;2023-04-24T05:09:59;8.52;;;2.60;;
76856;SDS011;66179;44.686;37.628;2023-04-24T05:12:25;6.43;;;2.40;;
76856;SDS011;66179;44.686;37.628;2023-04-24T05:14:53;9.40;;;2.50;;
76856;SDS011;66179;44.686;37.628;2023-04-24T05:17:19;6.50;;;2.35;;
76856;SDS011;66179;44.686;37.628;2023-04-24T05:19:46;7.88;;;2.53;;
76856;SDS011;66179;44.686;37.628;2023-04-24T05:22:15;7.72;;;2.90;;
76856;SDS011;66179;44.686;37.628;2023-04-24T05:24:48;7.13;;;2.75;;
76856;SDS011;66179;44.686;37.628;2023-04-24T05:27:33;9.07;;;2.53;;
76856;SDS011;66179;44.686;37.628;2023-04-24T05:30:03;8.05;;;2.55;;
76856;SDS011;66179;44.686;37.628;2023-04-24T05:32:30;8.23;;;3.10;;
76856;SDS011;66179;44.686;37.628;2023-04-24T05:34:57;9.48;;;2.90;;
76856;SDS011;66179;44.686;37.628;2023-04-24T05:37:25;8.73;;;3.42;;
76856;SDS011;66179;44.686;37.628;2023-04-24T05:39:52;9.77;;;3.10;;
76856;SDS011;66179;44.686;37.628;2023-04-24T05:42:19;8.32;;;2.80;;
76856;SDS011;66179;44.686;37.628;2023-04-24T05:44:45;8.07;;;3.03;;
76856;SDS011;66179;44.686;37.628;2023-04-24T05:47:12;9.40;;;2.88;;
76856;SDS011;66179;44.686;37.628;2023-04-24T05:49:39;8.60;;;3.00;;
76856;SDS011;66179;44.686;37.628;2023-04-24T05:52:07;8.63;;;2.93;;
76856;SDS011;66179;44.686;37.628;2023-04-24T05:54:36;7.07;;;3.05;;
76856;SDS011;66179;44.686;37.628;2023-04-24T05:57:03;7.70;;;3.17;;
76856;SDS011;66179;44.686;37.628;2023-04-24T05:59:48;8.25;;;3.05;;
76856;SDS011;66179;44.686;37.628;2023-04-24T06:02:15;8.70;;;3.40;;
76856;SDS011;66179;44.686;37.628;2023-04-24T06:04:42;7.72;;;2.97;;
76856;SDS011;66179;44.686;37.628;2023-04-24T06:07:10;7.25;;;2.92;;
76856;SDS011;66179;44.686;37.628;2023-04-24T06:09:38;7.47;;;3.15;;
76856;SDS011;66179;44.686;37.628;2023-04-24T06:12:05;8.05;;;3.00;;
76856;SDS011;66179;44.686;37.628;2023-04-24T06:14:54;7.90;;;2.92;;
76856;SDS011;66179;44.686;37.628;2023-04-24T06:17:27;8.70;;;2.83;;
76856;SDS011;66179;44.686;37.628;2023-04-24T06:19:54;7.70;;;2.58;;
76856;SDS011;66179;44.686;37.628;2023-04-24T06:22:22;7.22;;;2.80;;
76856;SDS011;66179;44.686;37.628;2023-04-24T06:24:49;6.72;;;2.80;;
76856;SDS011;66179;44.686;37.628;2023-04-24T06:27:17;7.47;;;2.88;;
76856;SDS011;66179;44.686;37.628;2023-04-24T06:29:44;13.70;;;3.00;;
76856;SDS011;66179;44.686;37.628;2023-04-24T06:32:11;7.50;;;2.90;;
76856;SDS011;66179;44.686;37.628;2023-04-24T06:34:38;9.45;;;2.97;;
76856;SDS011;66179;44.686;37.628;2023-04-24T06:37:04;10.02;;;3.75;;
76856;SDS011;66179;44.686;37.628;2023-04-24T06:39:32;8.90;;;3.13;;
76856;SDS011;66179;44.686;37.628;2023-04-24T06:41:59;9.48;;;3.55;;
76856;SDS011;66179;44.686;37.628;2023-04-24T06:44:26;11.80;;;3.90;;
76856;SDS011;66179;44.686;37.628;2023-04-24T06:46:53;8.88;;;3.67;;
76856;SDS011;66179;44.686;37.628;2023-04-24T06:49:20;11.32;;;3.80;;
76856;SDS011;66179;44.686;37.628;2023-04-24T06:51:47;11.45;;;3.63;;
76856;SDS011;66179;44.686;37.628;2023-04-24T06:54:14;12.80;;;4.00;;
76856;SDS011;66179;44.686;37.628;2023-04-24T06:56:40;9.00;;;3.80;;
76856;SDS011;66179;44.686;37.628;2023-04-24T06:59:07;11.38;;;4.10;;
76856;SDS011;66179;44.686;37.628;2023-04-24T07:01:34;9.48;;;4.53;;
76856;SDS011;66179;44.686;37.628;2023-04-24T07:04:01;9.13;;;5.07;;
76856;SDS011;66179;44.686;37.628;2023-04-24T07:06:28;9.15;;;4.97;;
76856;SDS011;66179;44.686;37.628;2023-04-24T07:08:57;10.25;;;5.03;;
76856;SDS011;66179;44.686;37.628;2023-04-24T07:11:26;11.20;;;5.88;;
76856;SDS011;66179;44.686;37.628;2023-04-24T07:13:55;10.88;;;5.82;;
76856;SDS011;66179;44.686;37.628;2023-04-24T07:16:22;13.18;;;6.20;;
76856;SDS011;66179;44.686;37.628;2023-04-24T07:18:49;11.70;;;6.13;;
76856;SDS011;66179;44.686;37.628;2023-04-24T07:21:15;12.68;;;6.40;;
76856;SDS011;66179;44.686;37.628;2023-04-24T07:23:42;11.23;;;5.85;;
76856;SDS011;66179;44.686;37.628;2023-04-24T07:26:09;11.93;;;6.00;;
76856;SDS011;66179;44.686;37.628;2023-04-24T07:28:36;10.95;;;6.30;;
76856;SDS011;66179;44.686;37.628;2023-04-24T07:31:02;11.55;;;6.50;;
76856;SDS011;66179;44.686;37.628;2023-04-24T07:33:29;11.07;;;6.13;;
76856;SDS011;66179;44.686;37.628;2023-04-24T07:35:56;12.38;;;6.40;;
76856;SDS011;66179;44.686;37.628;2023-04-24T07:38:23;13.20;;;6.68;;
76856;SDS011;66179;44.686;37.628;2023-04-24T07:40:51;11.57;;;6.43;;
76856;SDS011;66179;44.686;37.628;2023-04-24T07:43:19;10.93;;;6.28;;
76856;SDS011;66179;44.686;37.628;2023-04-24T07:45:46;11.07;;;5.95;;
76856;SDS011;66179;44.686;37.628;2023-04-24T07:48:13;12.38;;;6.45;;
76856;SDS011;66179;44.686;37.628;2023-04-24T07:50:42;12.27;;;6.40;;
76856;SDS011;66179;44.686;37.628;2023-04-24T07:53:09;10.23;;;5.70;;
76856;SDS011;66179;44.686;37.628;2023-04-24T07:55:37;11.85;;;6.28;;
76856;SDS011;66179;44.686;37.628;2023-04-24T07:58:04;10.50;;;5.72;;
76856;SDS011;66179;44.686;37.628;2023-04-24T08:00:31;11.00;;;5.68;;
76856;SDS011;66179;44.686;37.628;2023-04-24T08:02:57;9.80;;;5.45;;
76856;SDS011;66179;44.686;37.628;2023-04-24T08:05:24;10.88;;;5.72;;
76856;SDS011;66179;44.686;37.628;2023-04-24T08:07:53;10.07;;;5.50;;
76856;SDS011;66179;44.686;37.628;2023-04-24T08:10:21;11.95;;;5.60;;
76856;SDS011;66179;44.686;37.628;2023-04-24T08:12:48;10.60;;;5.60;;
76856;SDS011;66179;44.686;37.628;2023-04-24T08:15:15;9.38;;;5.13;;
76856;SDS011;66179;44.686;37.628;2023-04-24T08:17:42;10.02;;;5.78;;
76856;SDS011;66179;44.686;37.628;2023-04-24T08:20:09;10.63;;;5.95;;
76856;SDS011;66179;44.686;37.628;2023-04-24T08:22:40;11.65;;;6.07;;
76856;SDS011;66179;44.686;37.628;2023-04-24T08:25:09;10.85;;;6.35;;
76856;SDS011;66179;44.686;37.628;2023-04-24T08:27:36;11.38;;;6.00;;
76856;SDS011;66179;44.686;37.628;2023-04-24T08:30:05;10.65;;;6.20;;
76856;SDS011;66179;44.686;37.628;2023-04-24T08:32:33;10.52;;;5.90;;
76856;SDS011;66179;44.686;37.628;2023-04-24T08:34:59;10.25;;;6.20;;
76856;SDS011;66179;44.686;37.628;2023-04-24T08:37:26;11.23;;;6.30;;
76856;SDS011;66179;44.686;37.628;2023-04-24T08:39:53;11.18;;;6.03;;
76856;SDS011;66179;44.686;37.628;2023-04-24T08:42:21;10.63;;;6.20;;
76856;SDS011;66179;44.686;37.628;2023-04-24T08:44:49;10.70;;;6.35;;
76856;SDS011;66179;44.686;37.628;2023-04-24T08:47:16;11.00;;;6.43;;
76856;SDS011;66179;44.686;37.628;2023-04-24T08:49:44;11.27;;;6.47;;
76856;SDS011;66179;44.686;37.628;2023-04-24T08:52:12;10.50;;;6.35;;
76856;SDS011;66179;44.686;37.628;2023-04-24T08:54:39;14.25;;;6.78;;
76856;SDS011;66179;44.686;37.628;2023-04-24T08:57:07;11.25;;;6.20;;
76856;SDS011;66179;44.686;37.628;2023-04-24T08:59:37;10.63;;;6.63;;
76856;SDS011;66179;44.686;37.628;2023-04-24T09:02:04;10.07;;;5.50;;
76856;SDS011;66179;44.686;37.628;2023-04-24T09:04:32;9.23;;;5.10;;
76856;SDS011;66179;44.686;37.628;2023-04-24T09:07:01;9.30;;;5.05;;
76856;SDS011;66179;44.686;37.628;2023-04-24T09:09:30;11.90;;;5.10;;
76856;SDS011;66179;44.686;37.628;2023-04-24T09:11:58;12.50;;;6.13;;
76856;SDS011;66179;44.686;37.628;2023-04-24T09:14:26;10.75;;;5.35;;
76856;SDS011;66179;44.686;37.628;2023-04-24T09:16:54;10.05;;;4.80;;
76856;SDS011;66179;44.686;37.628;2023-04-24T09:19:20;10.45;;;4.10;;
76856;SDS011;66179;44.686;37.628;2023-04-24T09:21:48;10.10;;;4.68;;
76856;SDS011;66179;44.686;37.628;2023-04-24T09:24:17;9.32;;;3.80;;
76856;SDS011;66179;44.686;37.628;2023-04-24T09:26:46;9.55;;;3.97;;
76856;SDS011;66179;44.686;37.628;2023-04-24T09:29:16;9.60;;;4.50;;
76856;SDS011;66179;44.686;37.628;2023-04-24T09:31:44;9.25;;;4.38;;
76856;SDS011;66179;44.686;37.628;2023-04-24T09:34:12;8.05;;;3.78;;
76856;SDS011;66179;44.686;37.628;2023-04-24T09:36:40;11.65;;;4.32;;
76856;SDS011;66179;44.686;37.628;2023-04-24T09:39:09;11.48;;;4.10;;
76856;SDS011;66179;44.686;37.628;2023-04-24T09:44:12;10.48;;;4.40;;
76856;SDS011;66179;44.686;37.628;2023-04-24T09:46:44;12.68;;;4.22;;
76856;SDS011;66179;44.686;37.628;2023-04-24T09:49:16;8.68;;;3.85;;
76856;SDS011;66179;44.686;37.628;2023-04-24T09:51:46;10.45;;;4.40;;
76856;SDS011;66179;44.686;37.628;2023-04-24T09:54:22;10.10;;;4.35;;
76856;SDS011;66179;44.686;37.628;2023-04-24T09:56:50;9.13;;;4.80;;
76856;SDS011;66179;44.686;37.628;2023-04-24T09:59:18;11.70;;;5.38;;
76856;SDS011;66179;44.686;37.628;2023-04-24T10:01:46;9.48;;;4.22;;
76856;SDS011;66179;44.686;37.628;2023-04-24T10:04:15;8.77;;;4.00;;
76856;SDS011;66179;44.686;37.628;2023-04-24T10:06:47;9.05;;;4.07;;
76856;SDS011;66179;44.686;37.628;2023-04-24T10:09:19;10.60;;;3.90;;
76856;SDS011;66179;44.686;37.628;2023-04-24T10:11:47;8.20;;;3.83;;
76856;SDS011;66179;44.686;37.628;2023-04-24T10:14:17;10.30;;;3.47;;
76856;SDS011;66179;44.686;37.628;2023-04-24T10:16:45;8.90;;;3.63;;
76856;SDS011;66179;44.686;37.628;2023-04-24T10:19:16;9.95;;;3.53;;
76856;SDS011;66179;44.686;37.628;2023-04-24T10:21:46;8.40;;;3.40;;
76856;SDS011;66179;44.686;37.628;2023-04-24T10:24:14;8.15;;;3.20;;
76856;SDS011;66179;44.686;37.628;2023-04-24T10:26:42;8.07;;;3.40;;
76856;SDS011;66179;44.686;37.628;2023-04-24T10:29:10;7.13;;;3.30;;
76856;SDS011;66179;44.686;37.628;2023-04-24T10:31:39;9.23;;;3.30;;
76856;SDS011;66179;44.686;37.628;2023-04-24T10:34:06;9.55;;;3.55;;
76856;SDS011;66179;44.686;37.628;2023-04-24T10:36:35;9.00;;;3.60;;
76856;SDS011;66179;44.686;37.628;2023-04-24T10:39:07;9.02;;;3.70;;
76856;SDS011;66179;44.686;37.628;2023-04-24T10:41:37;7.78;;;3.40;;
76856;SDS011;66179;44.686;37.628;2023-04-24T10:44:11;8.25;;;3.70;;
76856;SDS011;66179;44.686;37.628;2023-04-24T10:46:43;9.30;;;3.75;;
76856;SDS011;66179;44.686;37.628;2023-04-24T10:49:12;10.48;;;3.90;;
76856;SDS011;66179;44.686;37.628;2023-04-24T10:51:46;9.18;;;3.60;;
76856;SDS011;66179;44.686;37.628;2023-04-24T10:56:51;9.70;;;3.75;;
76856;SDS011;66179;44.686;37.628;2023-04-24T10:59:24;6.95;;;3.35;;
76856;SDS011;66179;44.686;37.628;2023-04-24T11:01:53;10.35;;;3.95;;
76856;SDS011;66179;44.686;37.628;2023-04-24T11:04:30;8.35;;;4.05;;
76856;SDS011;66179;44.686;37.628;2023-04-24T11:06:59;7.95;;;3.83;;
76856;SDS011;66179;44.686;37.628;2023-04-24T11:09:26;9.73;;;3.28;;
76856;SDS011;66179;44.686;37.628;2023-04-24T11:12:07;7.60;;;3.40;;
76856;SDS011;66179;44.686;37.628;2023-04-24T11:17:34;12.45;;;3.70;;
76856;SDS011;66179;44.686;37.628;2023-04-24T11:20:10;8.45;;;3.60;;
76856;SDS011;66179;44.686;37.628;2023-04-24T11:22:38;9.50;;;3.65;;
76856;SDS011;66179;44.686;37.628;2023-04-24T11:25:08;8.15;;;3.63;;
76856;SDS011;66179;44.686;37.628;2023-04-24T11:27:38;7.85;;;3.10;;
76856;SDS011;66179;44.686;37.628;2023-04-24T11:30:07;8.65;;;3.38;;
76856;SDS011;66179;44.686;37.628;2023-04-24T11:32:35;7.15;;;2.95;;
76856;SDS011;66179;44.686;37.628;2023-04-24T11:35:20;8.05;;;3.50;;
76856;SDS011;66179;44.686;37.628;2023-04-24T11:37:51;7.88;;;3.42;;
76856;SDS011;66179;44.686;37.628;2023-04-24T11:40:20;9.15;;;3.60;;
76856;SDS011;66179;44.686;37.628;2023-04-24T11:42:52;7.93;;;3.67;;
76856;SDS011;66179;44.686;37.628;2023-04-24T11:45:22;8.10;;;3.88;;
76856;SDS011;66179;44.686;37.628;2023-04-24T11:47:51;8.15;;;3.60;;
76856;SDS011;66179;44.686;37.628;2023-04-24T11:50:18;8.95;;;3.55;;
76856;SDS011;66179;44.686;37.628;2023-04-24T11:52:48;9.13;;;3.88;;
76856;SDS011;66179;44.686;37.628;2023-04-24T11:57:45;9.52;;;3.70;;
76856;SDS011;66179;44.686;37.628;2023-04-24T12:00:16;11.15;;;3.80;;
76856;SDS011;66179;44.686;37.628;2023-04-24T12:02:44;7.97;;;3.55;;
76856;SDS011;66179;44.686;37.628;2023-04-24T12:05:20;8.48;;;4.07;;
76856;SDS011;66179;44.686;37.628;2023-04-24T12:07:52;9.60;;;3.72;;
76856;SDS011;66179;44.686;37.628;2023-04-24T12:10:20;8.73;;;4.00;;
76856;SDS011;66179;44.686;37.628;2023-04-24T12:12:47;8.77;;;4.57;;
76856;SDS011;66179;44.686;37.628;2023-04-24T12:15:17;8.85;;;4.50;;
76856;SDS011;66179;44.686;37.628;2023-04-24T12:17:45;9.80;;;4.22;;
76856;SDS011;66179;44.686;37.628;2023-04-24T12:20:12;8.90;;;4.10;;
76856;SDS011;66179;44.686;37.628;2023-04-24T12:22:46;9.68;;;3.95;;
76856;SDS011;66179;44.686;37.628;2023-04-24T12:25:16;9.90;;;3.92;;
76856;SDS011;66179;44.686;37.628;2023-04-24T12:27:51;7.63;;;3.45;;
76856;SDS011;66179;44.686;37.628;2023-04-24T12:30:43;7.97;;;3.70;;
76856;SDS011;66179;44.686;37.628;2023-04-24T12:33:18;7.82;;;3.63;;
76856;SDS011;66179;44.686;37.628;2023-04-24T12:35:45;7.93;;;3.90;;
76856;SDS011;66179;44.686;37.628;2023-04-24T12:38:21;9.23;;;4.20;;
76856;SDS011;66179;44.686;37.628;2023-04-24T12:41:01;9.07;;;4.20;;
76856;SDS011;66179;44.686;37.628;2023-04-24T12:43:32;8.82;;;4.13;;
76856;SDS011;66179;44.686;37.628;2023-04-24T12:45:59;8.15;;;3.72;;
76856;SDS011;66179;44.686;37.628;2023-04-24T12:48:26;7.05;;;3.88;;
76856;SDS011;66179;44.686;37.628;2023-04-24T12:50:54;8.55;;;4.00;;
76856;SDS011;66179;44.686;37.628;2023-04-24T12:53:22;9.95;;;5.53;;
76856;SDS011;66179;44.686;37.628;2023-04-24T12:55:48;9.68;;;4.95;;
76856;SDS011;66179;44.686;37.628;2023-04-24T12:58:19;9.50;;;5.13;;
76856;SDS011;66179;44.686;37.628;2023-04-24T13:00:46;8.90;;;5.13;;
76856;SDS011;66179;44.686;37.628;2023-04-24T13:03:13;8.85;;;5.05;;
76856;SDS011;66179;44.686;37.628;2023-04-24T13:05:41;11.05;;;5.03;;
76856;SDS011;66179;44.686;37.628;2023-04-24T13:08:09;11.45;;;5.97;;
76856;SDS011;66179;44.686;37.628;2023-04-24T13:10:36;12.13;;;5.75;;
76856;SDS011;66179;44.686;37.628;2023-04-24T13:13:02;11.80;;;4.90;;
76856;SDS011;66179;44.686;37.628;2023-04-24T13:15:29;8.48;;;4.40;;
76856;SDS011;66179;44.686;37.628;2023-04-24T13:17:56;10.05;;;4.72;;
76856;SDS011;66179;44.686;37.628;2023-04-24T13:20:23;9.82;;;5.30;;
76856;SDS011;66179;44.686;37.628;2023-04-24T13:22:49;11.30;;;4.60;;
76856;SDS011;66179;44.686;37.628;2023-04-24T13:25:16;9.95;;;4.38;;
76856;SDS011;66179;44.686;37.628;2023-04-24T13:27:43;9.35;;;4.40;;
76856;SDS011;66179;44.686;37.628;2023-04-24T13:30:10;9.05;;;4.40;;
76856;SDS011;66179;44.686;37.628;2023-04-24T13:32:37;12.25;;;4.70;;
76856;SDS011;66179;44.686;37.628;2023-04-24T13:35:04;10.63;;;5.15;;
76856;SDS011;66179;44.686;37.628;2023-04-24T13:37:31;9.13;;;4.70;;
76856;SDS011;66179;44.686;37.628;2023-04-24T13:39:58;10.07;;;4.63;;
76856;SDS011;66179;44.686;37.628;2023-04-24T13:42:24;9.63;;;4.38;;
76856;SDS011;66179;44.686;37.628;2023-04-24T13:44:51;11.43;;;4.72;;
76856;SDS011;66179;44.686;37.628;2023-04-24T13:47:18;8.45;;;4.47;;
76856;SDS011;66179;44.686;37.628;2023-04-24T13:49:45;10.98;;;4.95;;
76856;SDS011;66179;44.686;37.628;2023-04-24T13:52:12;11.35;;;4.78;;
76856;SDS011;66179;44.686;37.628;2023-04-24T13:54:40;10.60;;;4.88;;
76856;SDS011;66179;44.686;37.628;2023-04-24T13:57:06;9.25;;;4.75;;
76856;SDS011;66179;44.686;37.628;2023-04-24T13:59:33;10.20;;;4.68;;
76856;SDS011;66179;44.686;37.628;2023-04-24T14:02:00;11.02;;;4.60;;
76856;SDS011;66179;44.686;37.628;2023-04-24T14:04:27;9.48;;;4.82;;
76856;SDS011;66179;44.686;37.628;2023-04-24T14:06:54;9.52;;;4.68;;
76856;SDS011;66179;44.686;37.628;2023-04-24T14:09:21;9.45;;;4.72;;
76856;SDS011;66179;44.686;37.628;2023-04-24T14:11:48;9.02;;;4.35;;
76856;SDS011;66179;44.686;37.628;2023-04-24T14:14:15;10.13;;;4.95;;
76856;SDS011;66179;44.686;37.628;2023-04-24T14:16:42;8.73;;;4.60;;
76856;SDS011;66179;44.686;37.628;2023-04-24T14:19:09;9.15;;;4.68;;
76856;SDS011;66179;44.686;37.628;2023-04-24T14:21:36;8.98;;;4.22;;
76856;SDS011;66179;44.686;37.628;2023-04-24T14:24:03;10.68;;;4.97;;
76856;SDS011;66179;44.686;37.628;2023-04-24T14:26:30;9.77;;;4.78;;
76856;SDS011;66179;44.686;37.628;2023-04-24T14:28:56;8.65;;;4.30;;
76856;SDS011;66179;44.686;37.628;2023-04-24T14:31:25;10.98;;;4.85;;
76856;SDS011;66179;44.686;37.628;2023-04-24T14:33:51;10.02;;;4.40;;
76856;SDS011;66179;44.686;37.628;2023-04-24T14:36:18;8.77;;;4.88;;
76856;SDS011;66179;44.686;37.628;2023-04-24T14:38:45;9.35;;;4.80;;
76856;SDS011;66179;44.686;37.628;2023-04-24T14:41:12;10.00;;;5.03;;
76856;SDS011;66179;44.686;37.628;2023-04-24T14:43:39;10.73;;;4.82;;
76856;SDS011;66179;44.686;37.628;2023-04-24T14:46:06;10.57;;;4.40;;
76856;SDS011;66179;44.686;37.628;2023-04-24T14:48:33;9.15;;;4.28;;
76856;SDS011;66179;44.686;37.628;2023-04-24T14:50:59;8.63;;;4.18;;
76856;SDS011;66179;44.686;37.628;2023-04-24T14:53:26;9.45;;;4.50;;